sensor_id;sensor_type;location;lat;lon;timestamp;P1;durP1;ratioP1;P2;durP2;ratioP2
60233;SDS011;49514;43.538;-5.708;2024-02-28T12:24:12;2.17;;;0.70;;
60233;SDS011;49514;43.538;-5.708;2024-02-28T12:26:39;2.35;;;0.80;;
60233;SDS011;49514;43.538;-5.708;2024-02-28T12:29:06;3.33;;;1.10;;
60233;SDS011;49514;43.538;-5.708;2024-02-28T12:31:33;2.53;;;0.93;;
60233;SDS011;49514;43.538;-5.708;2024-02-28T12:34:00;3.72;;;1.00;;
60233;SDS011;49514;43.538;-5.708;2024-02-28T12:36:26;3.70;;;0.90;;
60233;SDS011;49514;43.538;-5.708;2024-02-28T12:38:53;2.42;;;0.90;;
60233;SDS011;49514;43.538;-5.708;2024-02-28T12:41:20;3.70;;;1.20;;
60233;SDS011;49514;43.538;-5.708;2024-02-28T12:43:47;3.63;;;1.02;;
60233;SDS011;49514;43.538;-5.708;2024-02-28T12:46:13;3.10;;;1.10;;
60233;SDS011;49514;43.538;-5.708;2024-02-28T12:48:40;3.75;;;1.23;;
60233;SDS011;49514;43.538;-5.708;2024-02-28T12:51:08;4.63;;;1.20;;
60233;SDS011;49514;43.538;-5.708;2024-02-28T12:53:36;3.63;;;1.00;;
60233;SDS011;49514;43.538;-5.708;2024-02-28T12:56:03;3.38;;;0.80;;
60233;SDS011;49514;43.538;-5.708;2024-02-28T12:58:30;2.45;;;0.95;;
60233;SDS011;49514;43.538;-5.708;2024-02-28T13:00:56;5.72;;;1.00;;
60233;SDS011;49514;43.538;-5.708;2024-02-28T13:03:23;6.87;;;1.10;;
60233;SDS011;49514;43.538;-5.708;2024-02-28T13:05:49;2.72;;;0.80;;
60233;SDS011;49514;43.538;-5.708;2024-02-28T13:08:16;3.25;;;0.80;;
60233;SDS011;49514;43.538;-5.708;2024-02-28T13:10:43;4.47;;;1.63;;
60233;SDS011;49514;43.538;-5.708;2024-02-28T13:13:10;5.18;;;1.50;;
60233;SDS011;49514;43.538;-5.708;2024-02-28T13:15:40;7.70;;;1.25;;
60233;SDS011;49514;43.538;-5.708;2024-02-28T13:18:07;8.30;;;1.27;;
60233;SDS011;49514;43.538;-5.708;2024-02-28T13:20:36;6.57;;;1.27;;
60233;SDS011;49514;43.538;-5.708;2024-02-28T13:23:03;3.05;;;0.95;;
60233;SDS011;49514;43.538;-5.708;2024-02-28T13:25:30;5.03;;;1.15;;
60233;SDS011;49514;43.538;-5.708;2024-02-28T13:27:57;2.13;;;0.80;;
60233;SDS011;49514;43.538;-5.708;2024-02-28T13:30:24;2.60;;;0.80;;
60233;SDS011;49514;43.538;-5.708;2024-02-28T13:32:51;3.08;;;0.80;;
60233;SDS011;49514;43.538;-5.708;2024-02-28T13:35:18;3.03;;;0.80;;
60233;SDS011;49514;43.538;-5.708;2024-02-28T13:37:44;3.42;;;0.88;;
60233;SDS011;49514;43.538;-5.708;2024-02-28T13:40:11;4.47;;;0.90;;
60233;SDS011;49514;43.538;-5.708;2024-02-28T13:42:38;5.28;;;1.23;;
60233;SDS011;49514;43.538;-5.708;2024-02-28T13:45:05;4.03;;;1.00;;
60233;SDS011;49514;43.538;-5.708;2024-02-28T13:47:36;3.30;;;1.10;;
60233;SDS011;49514;43.538;-5.708;2024-02-28T13:50:03;3.03;;;1.02;;
60233;SDS011;49514;43.538;-5.708;2024-02-28T13:52:30;2.35;;;1.00;;
60233;SDS011;49514;43.538;-5.708;2024-02-28T13:54:57;3.90;;;0.90;;
60233;SDS011;49514;43.538;-5.708;2024-02-28T13:57:24;4.80;;;0.95;;
60233;SDS011;49514;43.538;-5.708;2024-02-28T13:59:51;3.25;;;0.90;;
60233;SDS011;49514;43.538;-5.708;2024-02-28T14:02:23;2.88;;;0.88;;
60233;SDS011;49514;43.538;-5.708;2024-02-28T14:04:52;2.83;;;0.80;;
60233;SDS011;49514;43.538;-5.708;2024-02-28T14:07:20;3.55;;;0.80;;
60233;SDS011;49514;43.538;-5.708;2024-02-28T14:09:46;4.30;;;0.80;;
60233;SDS011;49514;43.538;-5.708;2024-02-28T14:12:13;2.38;;;0.80;;
60233;SDS011;49514;43.538;-5.708;2024-02-28T14:14:40;5.45;;;0.98;;
60233;SDS011;49514;43.538;-5.708;2024-02-28T14:17:07;3.28;;;0.88;;
60233;SDS011;49514;43.538;-5.708;2024-02-28T14:19:33;4.70;;;1.00;;
60233;SDS011;49514;43.538;-5.708;2024-02-28T14:22:01;3.63;;;0.90;;
60233;SDS011;49514;43.538;-5.708;2024-02-28T14:24:28;5.97;;;1.05;;
60233;SDS011;49514;43.538;-5.708;2024-02-28T14:26:55;4.35;;;0.80;;
60233;SDS011;49514;43.538;-5.708;2024-02-28T14:29:22;4.47;;;0.90;;
60233;SDS011;49514;43.538;-5.708;2024-02-28T14:31:48;4.22;;;0.88;;
60233;SDS011;49514;43.538;-5.708;2024-02-28T14:34:15;3.55;;;0.88;;
60233;SDS011;49514;43.538;-5.708;2024-02-28T14:36:42;3.55;;;0.60;;
60233;SDS011;49514;43.538;-5.708;2024-02-28T14:39:08;4.03;;;0.70;;
60233;SDS011;49514;43.538;-5.708;2024-02-28T14:41:44;2.95;;;0.70;;
60233;SDS011;49514;43.538;-5.708;2024-02-28T14:44:11;2.97;;;0.70;;
60233;SDS011;49514;43.538;-5.708;2024-02-28T14:46:37;3.78;;;0.90;;
60233;SDS011;49514;43.538;-5.708;2024-02-28T14:49:05;1.52;;;0.60;;
60233;SDS011;49514;43.538;-5.708;2024-02-28T14:51:31;1.40;;;0.50;;
60233;SDS011;49514;43.538;-5.708;2024-02-28T14:53:59;2.05;;;0.68;;
60233;SDS011;49514;43.538;-5.708;2024-02-28T14:56:26;1.80;;;0.60;;
60233;SDS011;49514;43.538;-5.708;2024-02-28T14:58:55;3.05;;;0.60;;
60233;SDS011;49514;43.538;-5.708;2024-02-28T15:01:23;2.03;;;0.50;;
60233;SDS011;49514;43.538;-5.708;2024-02-28T15:03:50;3.33;;;0.80;;
60233;SDS011;49514;43.538;-5.708;2024-02-28T15:06:17;2.15;;;0.40;;
60233;SDS011;49514;43.538;-5.708;2024-02-28T15:08:44;1.35;;;0.50;;
60233;SDS011;49514;43.538;-5.708;2024-02-28T15:11:11;1.48;;;0.50;;
60233;SDS011;49514;43.538;-5.708;2024-02-28T15:13:38;1.88;;;0.40;;
60233;SDS011;49514;43.538;-5.708;2024-02-28T15:16:05;2.30;;;0.50;;
60233;SDS011;49514;43.538;-5.708;2024-02-28T15:18:31;1.42;;;0.40;;
60233;SDS011;49514;43.538;-5.708;2024-02-28T15:20:59;0.50;;;0.30;;
60233;SDS011;49514;43.538;-5.708;2024-02-28T15:23:27;0.93;;;0.30;;
60233;SDS011;49514;43.538;-5.708;2024-02-28T15:25:54;0.40;;;0.20;;
60233;SDS011;49514;43.538;-5.708;2024-02-28T15:28:21;0.80;;;0.20;;
60233;SDS011;49514;43.538;-5.708;2024-02-28T15:30:49;1.10;;;0.20;;
60233;SDS011;49514;43.538;-5.708;2024-02-28T15:33:16;0.73;;;0.30;;
60233;SDS011;49514;43.538;-5.708;2024-02-28T15:35:42;0.90;;;0.30;;
60233;SDS011;49514;43.538;-5.708;2024-02-28T15:38:09;1.03;;;0.20;;
60233;SDS011;49514;43.538;-5.708;2024-02-28T15:40:36;1.90;;;0.20;;
60233;SDS011;49514;43.538;-5.708;2024-02-28T15:43:03;1.40;;;0.40;;
60233;SDS011;49514;43.538;-5.708;2024-02-28T15:45:29;0.88;;;0.20;;
60233;SDS011;49514;43.538;-5.708;2024-02-28T15:47:56;1.52;;;0.32;;
60233;SDS011;49514;43.538;-5.708;2024-02-28T15:50:24;0.70;;;0.30;;
60233;SDS011;49514;43.538;-5.708;2024-02-28T15:52:51;0.30;;;0.13;;
60233;SDS011;49514;43.538;-5.708;2024-02-28T15:55:17;1.30;;;0.27;;
60233;SDS011;49514;43.538;-5.708;2024-02-28T15:57:46;0.43;;;0.20;;
60233;SDS011;49514;43.538;-5.708;2024-02-28T16:00:13;0.80;;;0.20;;
60233;SDS011;49514;43.538;-5.708;2024-02-28T16:02:40;0.98;;;0.20;;
60233;SDS011;49514;43.538;-5.708;2024-02-28T16:05:07;1.00;;;0.30;;
60233;SDS011;49514;43.538;-5.708;2024-02-28T16:07:34;0.50;;;0.30;;
60233;SDS011;49514;43.538;-5.708;2024-02-28T16:10:01;0.60;;;0.20;;
60233;SDS011;49514;43.538;-5.708;2024-02-28T16:12:27;1.30;;;0.30;;
